sensor_id;sensor_type;location;lat;lon;timestamp;temperature;humidity
41720;DHT22;27405;53.316;-6.294;2023-05-23T00:01:36;12.60;83.20
41720;DHT22;27405;53.316;-6.294;2023-05-23T00:04:03;12.60;83.20
41720;DHT22;27405;53.316;-6.294;2023-05-23T00:06:28;12.60;83.20
41720;DHT22;27405;53.316;-6.294;2023-05-23T00:08:56;12.60;83.20
41720;DHT22;27405;53.316;-6.294;2023-05-23T00:11:22;12.60;83.10
41720;DHT22;27405;53.316;-6.294;2023-05-23T00:13:52;12.60;83.10
41720;DHT22;27405;53.316;-6.294;2023-05-23T00:16:18;12.60;83.20
41720;DHT22;27405;53.316;-6.294;2023-05-23T00:18:44;12.60;83.30
41720;DHT22;27405;53.316;-6.294;2023-05-23T00:21:10;12.60;83.50
41720;DHT22;27405;53.316;-6.294;2023-05-23T00:23:38;12.50;83.50
41720;DHT22;27405;53.316;-6.294;2023-05-23T00:26:10;12.50;83.60
41720;DHT22;27405;53.316;-6.294;2023-05-23T00:28:38;12.50;83.80
41720;DHT22;27405;53.316;-6.294;2023-05-23T00:31:04;12.50;83.80
41720;DHT22;27405;53.316;-6.294;2023-05-23T00:33:30;12.50;84.00
41720;DHT22;27405;53.316;-6.294;2023-05-23T00:35:58;12.50;84.00
41720;DHT22;27405;53.316;-6.294;2023-05-23T00:38:24;12.50;84.10
41720;DHT22;27405;53.316;-6.294;2023-05-23T00:40:51;12.40;84.20
41720;DHT22;27405;53.316;-6.294;2023-05-23T00:43:17;12.40;84.30
41720;DHT22;27405;53.316;-6.294;2023-05-23T00:45:43;12.40;84.40
41720;DHT22;27405;53.316;-6.294;2023-05-23T00:48:09;12.40;84.60
41720;DHT22;27405;53.316;-6.294;2023-05-23T00:50:36;12.40;84.60
41720;DHT22;27405;53.316;-6.294;2023-05-23T00:53:02;12.40;84.70
41720;DHT22;27405;53.316;-6.294;2023-05-23T00:55:28;12.40;84.70
41720;DHT22;27405;53.316;-6.294;2023-05-23T00:57:54;12.40;84.80
41720;DHT22;27405;53.316;-6.294;2023-05-23T01:00:22;12.40;84.90
41720;DHT22;27405;53.316;-6.294;2023-05-23T01:02:49;12.40;85.20
41720;DHT22;27405;53.316;-6.294;2023-05-23T01:05:19;12.40;85.20
41720;DHT22;27405;53.316;-6.294;2023-05-23T01:07:48;12.40;85.40
41720;DHT22;27405;53.316;-6.294;2023-05-23T01:10:15;12.40;85.50
41720;DHT22;27405;53.316;-6.294;2023-05-23T01:15:20;12.30;85.90
41720;DHT22;27405;53.316;-6.294;2023-05-23T01:17:58;12.30;85.80
41720;DHT22;27405;53.316;-6.294;2023-05-23T01:28:46;12.10;86.50
41720;DHT22;27405;53.316;-6.294;2023-05-23T01:31:14;12.10;86.40
41720;DHT22;27405;53.316;-6.294;2023-05-23T01:33:41;12.10;86.70
41720;DHT22;27405;53.316;-6.294;2023-05-23T01:36:08;12.10;86.90
41720;DHT22;27405;53.316;-6.294;2023-05-23T01:38:37;12.10;87.10
41720;DHT22;27405;53.316;-6.294;2023-05-23T01:41:03;12.10;87.20
41720;DHT22;27405;53.316;-6.294;2023-05-23T01:43:29;12.10;87.90
41720;DHT22;27405;53.316;-6.294;2023-05-23T01:45:55;12.10;87.40
41720;DHT22;27405;53.316;-6.294;2023-05-23T01:48:23;12.10;87.40
41720;DHT22;27405;53.316;-6.294;2023-05-23T01:50:52;12.10;87.50
41720;DHT22;27405;53.316;-6.294;2023-05-23T01:53:22;12.10;87.60
41720;DHT22;27405;53.316;-6.294;2023-05-23T01:55:49;12.00;87.80
41720;DHT22;27405;53.316;-6.294;2023-05-23T01:58:15;12.00;87.90
41720;DHT22;27405;53.316;-6.294;2023-05-23T02:00:41;12.00;88.00
41720;DHT22;27405;53.316;-6.294;2023-05-23T02:03:07;12.00;88.10
41720;DHT22;27405;53.316;-6.294;2023-05-23T02:05:33;12.00;88.20
41720;DHT22;27405;53.316;-6.294;2023-05-23T02:07:59;12.00;88.20
41720;DHT22;27405;53.316;-6.294;2023-05-23T02:10:25;12.00;88.40
41720;DHT22;27405;53.316;-6.294;2023-05-23T02:12:50;12.00;88.40
41720;DHT22;27405;53.316;-6.294;2023-05-23T02:15:16;12.10;88.60
41720;DHT22;27405;53.316;-6.294;2023-05-23T02:17:42;12.10;88.60
41720;DHT22;27405;53.316;-6.294;2023-05-23T02:20:08;12.00;88.60
41720;DHT22;27405;53.316;-6.294;2023-05-23T02:22:35;12.00;88.70
41720;DHT22;27405;53.316;-6.294;2023-05-23T02:25:02;12.00;88.80
41720;DHT22;27405;53.316;-6.294;2023-05-23T02:27:28;12.00;88.90
41720;DHT22;27405;53.316;-6.294;2023-05-23T02:29:53;12.00;88.90
41720;DHT22;27405;53.316;-6.294;2023-05-23T02:32:19;12.00;88.90
41720;DHT22;27405;53.316;-6.294;2023-05-23T02:34:45;12.00;88.90
41720;DHT22;27405;53.316;-6.294;2023-05-23T02:37:14;11.90;88.90
41720;DHT22;27405;53.316;-6.294;2023-05-23T02:39:41;11.90;88.90
41720;DHT22;27405;53.316;-6.294;2023-05-23T02:42:07;12.00;89.00
41720;DHT22;27405;53.316;-6.294;2023-05-23T02:44:33;11.90;88.90
41720;DHT22;27405;53.316;-6.294;2023-05-23T02:46:58;11.90;89.00
41720;DHT22;27405;53.316;-6.294;2023-05-23T02:49:24;11.90;89.10
41720;DHT22;27405;53.316;-6.294;2023-05-23T02:51:50;11.90;89.10
41720;DHT22;27405;53.316;-6.294;2023-05-23T02:54:15;11.80;89.10
41720;DHT22;27405;53.316;-6.294;2023-05-23T02:56:42;11.80;89.80
41720;DHT22;27405;53.316;-6.294;2023-05-23T02:59:08;11.80;89.30
41720;DHT22;27405;53.316;-6.294;2023-05-23T03:01:34;11.80;89.80
41720;DHT22;27405;53.316;-6.294;2023-05-23T03:03:59;11.80;89.20
41720;DHT22;27405;53.316;-6.294;2023-05-23T03:06:25;11.80;89.30
41720;DHT22;27405;53.316;-6.294;2023-05-23T03:08:51;11.80;89.20
41720;DHT22;27405;53.316;-6.294;2023-05-23T03:11:17;11.80;89.10
41720;DHT22;27405;53.316;-6.294;2023-05-23T03:13:43;11.70;89.10
41720;DHT22;27405;53.316;-6.294;2023-05-23T03:16:09;11.70;89.10
41720;DHT22;27405;53.316;-6.294;2023-05-23T03:18:36;11.70;89.10
41720;DHT22;27405;53.316;-6.294;2023-05-23T03:21:01;11.70;89.10
41720;DHT22;27405;53.316;-6.294;2023-05-23T03:23:27;11.70;89.10
41720;DHT22;27405;53.316;-6.294;2023-05-23T03:25:53;11.70;89.10
41720;DHT22;27405;53.316;-6.294;2023-05-23T03:28:19;11.70;89.10
41720;DHT22;27405;53.316;-6.294;2023-05-23T03:30:45;11.70;89.30
41720;DHT22;27405;53.316;-6.294;2023-05-23T03:33:10;11.70;89.20
41720;DHT22;27405;53.316;-6.294;2023-05-23T03:35:36;11.70;89.30
41720;DHT22;27405;53.316;-6.294;2023-05-23T03:38:02;11.70;89.20
41720;DHT22;27405;53.316;-6.294;2023-05-23T03:40:28;11.70;89.20
41720;DHT22;27405;53.316;-6.294;2023-05-23T03:43:07;11.70;89.30
41720;DHT22;27405;53.316;-6.294;2023-05-23T03:45:33;11.70;89.40
41720;DHT22;27405;53.316;-6.294;2023-05-23T03:47:59;11.70;89.40
41720;DHT22;27405;53.316;-6.294;2023-05-23T03:50:25;11.70;89.40
41720;DHT22;27405;53.316;-6.294;2023-05-23T03:52:51;11.70;89.40
41720;DHT22;27405;53.316;-6.294;2023-05-23T03:55:17;11.70;89.40
41720;DHT22;27405;53.316;-6.294;2023-05-23T03:57:47;11.70;89.50
41720;DHT22;27405;53.316;-6.294;2023-05-23T04:00:13;11.70;89.50
41720;DHT22;27405;53.316;-6.294;2023-05-23T04:02:39;11.70;89.60
41720;DHT22;27405;53.316;-6.294;2023-05-23T04:05:05;11.70;89.60
41720;DHT22;27405;53.316;-6.294;2023-05-23T04:07:32;11.70;89.70
41720;DHT22;27405;53.316;-6.294;2023-05-23T04:10:02;11.70;89.80
41720;DHT22;27405;53.316;-6.294;2023-05-23T04:12:27;11.60;89.80
41720;DHT22;27405;53.316;-6.294;2023-05-23T04:14:56;11.60;90.00
41720;DHT22;27405;53.316;-6.294;2023-05-23T04:17:22;11.60;90.00
41720;DHT22;27405;53.316;-6.294;2023-05-23T04:19:49;11.60;90.30
41720;DHT22;27405;53.316;-6.294;2023-05-23T04:22:15;11.50;90.00
41720;DHT22;27405;53.316;-6.294;2023-05-23T04:24:41;11.50;90.10
41720;DHT22;27405;53.316;-6.294;2023-05-23T04:27:07;11.50;90.10
41720;DHT22;27405;53.316;-6.294;2023-05-23T04:29:33;11.60;90.10
41720;DHT22;27405;53.316;-6.294;2023-05-23T04:32:03;11.60;90.10
41720;DHT22;27405;53.316;-6.294;2023-05-23T04:34:33;11.70;90.10
41720;DHT22;27405;53.316;-6.294;2023-05-23T04:36:59;11.60;90.10
41720;DHT22;27405;53.316;-6.294;2023-05-23T04:39:28;11.60;90.10
41720;DHT22;27405;53.316;-6.294;2023-05-23T04:41:56;11.60;90.10
41720;DHT22;27405;53.316;-6.294;2023-05-23T04:44:22;11.60;90.00
41720;DHT22;27405;53.316;-6.294;2023-05-23T04:46:48;11.60;90.00
41720;DHT22;27405;53.316;-6.294;2023-05-23T04:49:15;11.60;90.10
41720;DHT22;27405;53.316;-6.294;2023-05-23T04:51:41;11.60;90.10
41720;DHT22;27405;53.316;-6.294;2023-05-23T04:54:07;11.60;90.10
41720;DHT22;27405;53.316;-6.294;2023-05-23T04:56:33;11.60;90.10
41720;DHT22;27405;53.316;-6.294;2023-05-23T04:58:59;11.60;90.10
41720;DHT22;27405;53.316;-6.294;2023-05-23T05:01:24;11.60;90.10
41720;DHT22;27405;53.316;-6.294;2023-05-23T05:03:51;11.60;90.20
41720;DHT22;27405;53.316;-6.294;2023-05-23T05:06:17;11.60;90.20
41720;DHT22;27405;53.316;-6.294;2023-05-23T05:08:43;11.60;90.20
41720;DHT22;27405;53.316;-6.294;2023-05-23T05:11:09;11.70;90.20
41720;DHT22;27405;53.316;-6.294;2023-05-23T05:13:35;11.70;90.20
41720;DHT22;27405;53.316;-6.294;2023-05-23T05:16:01;11.70;90.50
41720;DHT22;27405;53.316;-6.294;2023-05-23T05:18:27;11.80;90.20
41720;DHT22;27405;53.316;-6.294;2023-05-23T05:20:53;11.80;90.20
41720;DHT22;27405;53.316;-6.294;2023-05-23T05:23:18;11.80;90.20
41720;DHT22;27405;53.316;-6.294;2023-05-23T05:25:45;11.80;90.20
41720;DHT22;27405;53.316;-6.294;2023-05-23T05:28:11;11.80;90.20
41720;DHT22;27405;53.316;-6.294;2023-05-23T05:30:36;11.80;90.20
41720;DHT22;27405;53.316;-6.294;2023-05-23T05:33:04;11.80;90.20
41720;DHT22;27405;53.316;-6.294;2023-05-23T05:35:33;11.80;90.20
41720;DHT22;27405;53.316;-6.294;2023-05-23T05:38:00;11.70;90.30
41720;DHT22;27405;53.316;-6.294;2023-05-23T05:40:26;11.70;90.30
41720;DHT22;27405;53.316;-6.294;2023-05-23T05:42:51;11.80;90.40
41720;DHT22;27405;53.316;-6.294;2023-05-23T05:45:17;11.80;90.40
41720;DHT22;27405;53.316;-6.294;2023-05-23T05:47:44;11.80;90.40
41720;DHT22;27405;53.316;-6.294;2023-05-23T05:50:10;11.90;90.40
41720;DHT22;27405;53.316;-6.294;2023-05-23T05:52:36;11.90;90.40
41720;DHT22;27405;53.316;-6.294;2023-05-23T05:55:08;11.90;90.40
41720;DHT22;27405;53.316;-6.294;2023-05-23T05:57:38;12.00;90.40
41720;DHT22;27405;53.316;-6.294;2023-05-23T06:00:11;12.00;90.40
41720;DHT22;27405;53.316;-6.294;2023-05-23T06:02:40;12.00;90.40
41720;DHT22;27405;53.316;-6.294;2023-05-23T06:05:08;12.10;90.30
41720;DHT22;27405;53.316;-6.294;2023-05-23T06:07:37;12.10;90.20
41720;DHT22;27405;53.316;-6.294;2023-05-23T06:10:02;12.20;90.30
41720;DHT22;27405;53.316;-6.294;2023-05-23T06:12:28;12.20;90.30
41720;DHT22;27405;53.316;-6.294;2023-05-23T06:14:54;12.20;90.30
41720;DHT22;27405;53.316;-6.294;2023-05-23T06:17:20;12.30;90.20
41720;DHT22;27405;53.316;-6.294;2023-05-23T06:19:45;12.30;90.20
41720;DHT22;27405;53.316;-6.294;2023-05-23T06:22:11;12.30;90.10
41720;DHT22;27405;53.316;-6.294;2023-05-23T06:24:37;12.40;90.10
41720;DHT22;27405;53.316;-6.294;2023-05-23T06:27:02;12.40;90.10
41720;DHT22;27405;53.316;-6.294;2023-05-23T06:29:28;12.50;90.00
41720;DHT22;27405;53.316;-6.294;2023-05-23T06:31:56;12.50;90.00
41720;DHT22;27405;53.316;-6.294;2023-05-23T06:34:22;12.50;90.00
41720;DHT22;27405;53.316;-6.294;2023-05-23T06:36:47;12.60;90.00
41720;DHT22;27405;53.316;-6.294;2023-05-23T06:39:13;12.60;90.00
41720;DHT22;27405;53.316;-6.294;2023-05-23T06:41:39;12.50;89.90
41720;DHT22;27405;53.316;-6.294;2023-05-23T06:44:05;12.50;90.00
41720;DHT22;27405;53.316;-6.294;2023-05-23T06:46:31;12.50;90.00
41720;DHT22;27405;53.316;-6.294;2023-05-23T06:48:56;12.60;90.10
41720;DHT22;27405;53.316;-6.294;2023-05-23T06:51:22;12.60;90.10
41720;DHT22;27405;53.316;-6.294;2023-05-23T06:53:48;12.60;90.00
41720;DHT22;27405;53.316;-6.294;2023-05-23T06:56:14;12.70;90.00
41720;DHT22;27405;53.316;-6.294;2023-05-23T06:58:39;12.70;89.90
41720;DHT22;27405;53.316;-6.294;2023-05-23T07:01:05;12.70;90.00
41720;DHT22;27405;53.316;-6.294;2023-05-23T07:03:31;12.70;90.00
41720;DHT22;27405;53.316;-6.294;2023-05-23T07:05:57;12.80;89.90
41720;DHT22;27405;53.316;-6.294;2023-05-23T07:08:23;12.80;90.00
41720;DHT22;27405;53.316;-6.294;2023-05-23T07:10:49;12.80;89.80
41720;DHT22;27405;53.316;-6.294;2023-05-23T07:13:15;12.90;89.90
41720;DHT22;27405;53.316;-6.294;2023-05-23T07:15:40;13.00;89.70
41720;DHT22;27405;53.316;-6.294;2023-05-23T07:18:06;13.00;89.50
41720;DHT22;27405;53.316;-6.294;2023-05-23T07:20:32;13.10;89.70
41720;DHT22;27405;53.316;-6.294;2023-05-23T07:22:58;13.10;89.50
41720;DHT22;27405;53.316;-6.294;2023-05-23T07:25:24;13.20;89.60
41720;DHT22;27405;53.316;-6.294;2023-05-23T07:27:51;13.30;89.40
41720;DHT22;27405;53.316;-6.294;2023-05-23T07:30:19;13.30;89.30
41720;DHT22;27405;53.316;-6.294;2023-05-23T07:32:46;13.30;89.20
41720;DHT22;27405;53.316;-6.294;2023-05-23T07:35:13;13.40;89.00
41720;DHT22;27405;53.316;-6.294;2023-05-23T07:37:38;13.50;89.00
41720;DHT22;27405;53.316;-6.294;2023-05-23T07:40:05;13.60;88.90
41720;DHT22;27405;53.316;-6.294;2023-05-23T07:42:30;13.70;88.80
41720;DHT22;27405;53.316;-6.294;2023-05-23T07:44:56;13.70;88.70
41720;DHT22;27405;53.316;-6.294;2023-05-23T07:47:22;13.80;88.40
41720;DHT22;27405;53.316;-6.294;2023-05-23T07:49:49;13.90;88.30
41720;DHT22;27405;53.316;-6.294;2023-05-23T07:52:16;13.90;88.00
41720;DHT22;27405;53.316;-6.294;2023-05-23T07:54:42;13.80;87.90
41720;DHT22;27405;53.316;-6.294;2023-05-23T07:57:08;13.80;87.90
41720;DHT22;27405;53.316;-6.294;2023-05-23T07:59:34;13.80;88.00
41720;DHT22;27405;53.316;-6.294;2023-05-23T08:02:01;13.80;88.10
41720;DHT22;27405;53.316;-6.294;2023-05-23T08:04:27;13.80;88.30
41720;DHT22;27405;53.316;-6.294;2023-05-23T08:06:53;13.80;88.40
41720;DHT22;27405;53.316;-6.294;2023-05-23T08:09:20;14.00;88.50
41720;DHT22;27405;53.316;-6.294;2023-05-23T08:11:46;14.00;88.40
41720;DHT22;27405;53.316;-6.294;2023-05-23T08:14:11;14.10;88.10
41720;DHT22;27405;53.316;-6.294;2023-05-23T08:16:37;14.10;87.80
41720;DHT22;27405;53.316;-6.294;2023-05-23T08:19:03;14.10;87.60
41720;DHT22;27405;53.316;-6.294;2023-05-23T08:21:28;14.10;87.80
41720;DHT22;27405;53.316;-6.294;2023-05-23T08:23:54;14.10;87.80
41720;DHT22;27405;53.316;-6.294;2023-05-23T08:26:20;14.20;87.80
41720;DHT22;27405;53.316;-6.294;2023-05-23T08:28:46;14.20;87.80
41720;DHT22;27405;53.316;-6.294;2023-05-23T08:31:11;14.30;87.80
41720;DHT22;27405;53.316;-6.294;2023-05-23T08:33:38;14.40;87.70
41720;DHT22;27405;53.316;-6.294;2023-05-23T08:36:04;14.40;87.60
41720;DHT22;27405;53.316;-6.294;2023-05-23T08:38:30;14.40;87.30
41720;DHT22;27405;53.316;-6.294;2023-05-23T08:40:59;14.50;87.00
41720;DHT22;27405;53.316;-6.294;2023-05-23T08:43:25;14.50;86.50
41720;DHT22;27405;53.316;-6.294;2023-05-23T08:45:51;14.60;86.10
41720;DHT22;27405;53.316;-6.294;2023-05-23T08:48:19;14.60;85.90
41720;DHT22;27405;53.316;-6.294;2023-05-23T08:50:46;14.70;85.90
41720;DHT22;27405;53.316;-6.294;2023-05-23T08:53:16;14.80;85.50
41720;DHT22;27405;53.316;-6.294;2023-05-23T08:55:48;14.90;85.00
41720;DHT22;27405;53.316;-6.294;2023-05-23T08:58:17;14.90;84.30
41720;DHT22;27405;53.316;-6.294;2023-05-23T09:00:48;14.90;84.30
41720;DHT22;27405;53.316;-6.294;2023-05-23T09:03:14;14.90;84.10
41720;DHT22;27405;53.316;-6.294;2023-05-23T09:05:41;14.90;83.80
41720;DHT22;27405;53.316;-6.294;2023-05-23T09:08:07;15.00;83.70
41720;DHT22;27405;53.316;-6.294;2023-05-23T09:10:33;15.00;82.90
41720;DHT22;27405;53.316;-6.294;2023-05-23T09:13:00;15.00;82.60
41720;DHT22;27405;53.316;-6.294;2023-05-23T09:15:26;15.00;82.50
41720;DHT22;27405;53.316;-6.294;2023-05-23T09:17:51;15.00;82.10
41720;DHT22;27405;53.316;-6.294;2023-05-23T09:20:17;15.00;81.70
41720;DHT22;27405;53.316;-6.294;2023-05-23T09:22:47;15.10;81.80
41720;DHT22;27405;53.316;-6.294;2023-05-23T09:25:13;15.20;81.20
41720;DHT22;27405;53.316;-6.294;2023-05-23T09:27:39;15.20;81.20
41720;DHT22;27405;53.316;-6.294;2023-05-23T09:30:06;15.30;80.80
41720;DHT22;27405;53.316;-6.294;2023-05-23T09:32:32;15.40;80.30
41720;DHT22;27405;53.316;-6.294;2023-05-23T09:34:59;15.40;80.20
41720;DHT22;27405;53.316;-6.294;2023-05-23T09:37:35;15.50;80.30
41720;DHT22;27405;53.316;-6.294;2023-05-23T09:40:12;15.60;79.20
41720;DHT22;27405;53.316;-6.294;2023-05-23T09:42:43;15.70;78.70
41720;DHT22;27405;53.316;-6.294;2023-05-23T09:45:10;15.80;78.50
41720;DHT22;27405;53.316;-6.294;2023-05-23T09:47:36;15.90;78.30
41720;DHT22;27405;53.316;-6.294;2023-05-23T09:50:01;15.90;78.00
41720;DHT22;27405;53.316;-6.294;2023-05-23T09:52:36;15.90;77.80
41720;DHT22;27405;53.316;-6.294;2023-05-23T09:55:06;15.90;77.10
41720;DHT22;27405;53.316;-6.294;2023-05-23T09:57:39;15.90;77.00
41720;DHT22;27405;53.316;-6.294;2023-05-23T10:00:05;16.00;76.40
41720;DHT22;27405;53.316;-6.294;2023-05-23T10:05:30;16.10;76.50
41720;DHT22;27405;53.316;-6.294;2023-05-23T10:08:00;16.30;76.50
41720;DHT22;27405;53.316;-6.294;2023-05-23T10:10:30;16.40;76.10
41720;DHT22;27405;53.316;-6.294;2023-05-23T10:12:57;16.60;76.00
41720;DHT22;27405;53.316;-6.294;2023-05-23T10:15:26;16.60;75.90
41720;DHT22;27405;53.316;-6.294;2023-05-23T10:18:30;16.70;75.60
41720;DHT22;27405;53.316;-6.294;2023-05-23T10:21:04;16.70;75.70
41720;DHT22;27405;53.316;-6.294;2023-05-23T10:23:31;16.70;75.60
41720;DHT22;27405;53.316;-6.294;2023-05-23T10:25:58;16.80;75.90
41720;DHT22;27405;53.316;-6.294;2023-05-23T10:28:24;16.90;75.30
41720;DHT22;27405;53.316;-6.294;2023-05-23T10:30:51;17.10;74.70
41720;DHT22;27405;53.316;-6.294;2023-05-23T10:33:17;17.20;74.50
41720;DHT22;27405;53.316;-6.294;2023-05-23T10:36:07;17.30;73.90
41720;DHT22;27405;53.316;-6.294;2023-05-23T10:38:40;17.30;73.50
41720;DHT22;27405;53.316;-6.294;2023-05-23T10:41:35;17.40;73.30
41720;DHT22;27405;53.316;-6.294;2023-05-23T10:44:27;17.50;73.20
41720;DHT22;27405;53.316;-6.294;2023-05-23T10:46:55;17.50;72.50
41720;DHT22;27405;53.316;-6.294;2023-05-23T10:49:42;17.40;72.10
41720;DHT22;27405;53.316;-6.294;2023-05-23T10:52:10;17.40;72.30
41720;DHT22;27405;53.316;-6.294;2023-05-23T10:54:56;17.40;72.50
41720;DHT22;27405;53.316;-6.294;2023-05-23T10:57:25;17.30;72.60
41720;DHT22;27405;53.316;-6.294;2023-05-23T10:59:53;17.30;72.80
41720;DHT22;27405;53.316;-6.294;2023-05-23T11:02:25;17.30;72.60
41720;DHT22;27405;53.316;-6.294;2023-05-23T11:05:29;17.30;72.30
41720;DHT22;27405;53.316;-6.294;2023-05-23T11:08:15;17.20;72.50
41720;DHT22;27405;53.316;-6.294;2023-05-23T11:10:54;17.20;72.60
41720;DHT22;27405;53.316;-6.294;2023-05-23T11:13:20;17.30;72.60
41720;DHT22;27405;53.316;-6.294;2023-05-23T11:15:47;17.30;73.20
41720;DHT22;27405;53.316;-6.294;2023-05-23T11:18:25;17.30;72.70
41720;DHT22;27405;53.316;-6.294;2023-05-23T11:20:52;17.40;72.90
41720;DHT22;27405;53.316;-6.294;2023-05-23T11:23:19;17.30;72.60
41720;DHT22;27405;53.316;-6.294;2023-05-23T11:25:49;17.40;72.60
41720;DHT22;27405;53.316;-6.294;2023-05-23T11:28:15;17.50;72.40
41720;DHT22;27405;53.316;-6.294;2023-05-23T11:30:42;17.50;72.40
41720;DHT22;27405;53.316;-6.294;2023-05-23T11:33:09;17.60;72.20
41720;DHT22;27405;53.316;-6.294;2023-05-23T11:35:45;17.60;71.40
41720;DHT22;27405;53.316;-6.294;2023-05-23T11:38:16;17.60;71.30
41720;DHT22;27405;53.316;-6.294;2023-05-23T11:40:44;17.60;71.80
41720;DHT22;27405;53.316;-6.294;2023-05-23T11:43:12;17.60;71.90
41720;DHT22;27405;53.316;-6.294;2023-05-23T11:45:38;17.70;72.00
41720;DHT22;27405;53.316;-6.294;2023-05-23T11:48:12;17.70;71.20
41720;DHT22;27405;53.316;-6.294;2023-05-23T11:50:49;17.70;70.70
41720;DHT22;27405;53.316;-6.294;2023-05-23T11:53:16;17.70;71.30
41720;DHT22;27405;53.316;-6.294;2023-05-23T11:56:00;17.70;70.90
41720;DHT22;27405;53.316;-6.294;2023-05-23T11:58:38;17.70;71.10
41720;DHT22;27405;53.316;-6.294;2023-05-23T12:01:09;17.80;71.20
41720;DHT22;27405;53.316;-6.294;2023-05-23T12:03:44;17.90;71.20
41720;DHT22;27405;53.316;-6.294;2023-05-23T12:06:24;17.90;71.00
41720;DHT22;27405;53.316;-6.294;2023-05-23T12:08:53;17.90;71.00
41720;DHT22;27405;53.316;-6.294;2023-05-23T12:11:18;18.00;70.80
41720;DHT22;27405;53.316;-6.294;2023-05-23T12:13:44;18.10;71.30
41720;DHT22;27405;53.316;-6.294;2023-05-23T12:16:12;18.20;71.10
41720;DHT22;27405;53.316;-6.294;2023-05-23T12:18:41;18.20;71.00
41720;DHT22;27405;53.316;-6.294;2023-05-23T12:21:07;18.20;70.90
41720;DHT22;27405;53.316;-6.294;2023-05-23T12:23:33;18.30;70.70
41720;DHT22;27405;53.316;-6.294;2023-05-23T12:26:03;18.30;70.20
41720;DHT22;27405;53.316;-6.294;2023-05-23T12:28:40;18.30;70.40
41720;DHT22;27405;53.316;-6.294;2023-05-23T12:31:19;18.50;70.10
41720;DHT22;27405;53.316;-6.294;2023-05-23T12:33:46;18.50;70.20
41720;DHT22;27405;53.316;-6.294;2023-05-23T12:36:25;18.60;70.30
41720;DHT22;27405;53.316;-6.294;2023-05-23T12:38:52;18.70;70.30
41720;DHT22;27405;53.316;-6.294;2023-05-23T12:41:19;18.70;70.50
41720;DHT22;27405;53.316;-6.294;2023-05-23T12:43:49;18.80;69.80
41720;DHT22;27405;53.316;-6.294;2023-05-23T12:46:16;18.80;69.60
41720;DHT22;27405;53.316;-6.294;2023-05-23T12:48:41;18.90;69.80
41720;DHT22;27405;53.316;-6.294;2023-05-23T12:51:07;18.90;69.60
41720;DHT22;27405;53.316;-6.294;2023-05-23T12:53:33;19.00;69.40
41720;DHT22;27405;53.316;-6.294;2023-05-23T12:55:58;19.10;69.00
41720;DHT22;27405;53.316;-6.294;2023-05-23T12:58:24;19.20;69.00
41720;DHT22;27405;53.316;-6.294;2023-05-23T13:00:50;19.20;68.80
41720;DHT22;27405;53.316;-6.294;2023-05-23T13:03:17;19.20;68.40
41720;DHT22;27405;53.316;-6.294;2023-05-23T13:05:42;19.20;68.50
41720;DHT22;27405;53.316;-6.294;2023-05-23T13:08:08;19.30;68.10
41720;DHT22;27405;53.316;-6.294;2023-05-23T13:10:34;19.40;67.60
41720;DHT22;27405;53.316;-6.294;2023-05-23T13:13:00;19.40;67.50
41720;DHT22;27405;53.316;-6.294;2023-05-23T13:15:26;19.50;67.30
41720;DHT22;27405;53.316;-6.294;2023-05-23T13:17:52;19.60;67.60
41720;DHT22;27405;53.316;-6.294;2023-05-23T13:20:17;19.70;67.60
41720;DHT22;27405;53.316;-6.294;2023-05-23T13:22:43;19.70;67.50
41720;DHT22;27405;53.316;-6.294;2023-05-23T13:25:09;19.80;67.50
41720;DHT22;27405;53.316;-6.294;2023-05-23T13:27:35;19.90;67.10
41720;DHT22;27405;53.316;-6.294;2023-05-23T13:30:01;19.90;66.70
41720;DHT22;27405;53.316;-6.294;2023-05-23T13:32:26;20.00;66.80
41720;DHT22;27405;53.316;-6.294;2023-05-23T13:34:52;20.20;66.40
41720;DHT22;27405;53.316;-6.294;2023-05-23T13:37:18;20.20;66.10
41720;DHT22;27405;53.316;-6.294;2023-05-23T13:39:44;20.20;66.10
41720;DHT22;27405;53.316;-6.294;2023-05-23T13:42:10;20.30;66.40
41720;DHT22;27405;53.316;-6.294;2023-05-23T13:44:36;20.40;66.60
41720;DHT22;27405;53.316;-6.294;2023-05-23T13:47:14;20.60;66.30
41720;DHT22;27405;53.316;-6.294;2023-05-23T13:49:40;20.70;65.90
41720;DHT22;27405;53.316;-6.294;2023-05-23T13:52:06;20.70;66.40
41720;DHT22;27405;53.316;-6.294;2023-05-23T13:54:32;20.70;65.70
41720;DHT22;27405;53.316;-6.294;2023-05-23T13:56:59;20.70;65.60
41720;DHT22;27405;53.316;-6.294;2023-05-23T13:59:28;20.70;65.30
41720;DHT22;27405;53.316;-6.294;2023-05-23T14:01:53;20.70;65.30
41720;DHT22;27405;53.316;-6.294;2023-05-23T14:04:19;20.70;66.10
41720;DHT22;27405;53.316;-6.294;2023-05-23T14:06:45;20.80;65.90
41720;DHT22;27405;53.316;-6.294;2023-05-23T14:09:11;20.80;65.60
41720;DHT22;27405;53.316;-6.294;2023-05-23T14:11:37;20.80;65.60
41720;DHT22;27405;53.316;-6.294;2023-05-23T14:14:03;20.70;65.60
41720;DHT22;27405;53.316;-6.294;2023-05-23T14:16:29;20.70;65.10
41720;DHT22;27405;53.316;-6.294;2023-05-23T14:18:55;20.70;65.00
41720;DHT22;27405;53.316;-6.294;2023-05-23T14:21:21;20.60;64.70
41720;DHT22;27405;53.316;-6.294;2023-05-23T14:23:47;20.60;64.80
41720;DHT22;27405;53.316;-6.294;2023-05-23T14:26:12;20.70;64.70
41720;DHT22;27405;53.316;-6.294;2023-05-23T14:28:38;20.80;64.50
41720;DHT22;27405;53.316;-6.294;2023-05-23T14:31:04;21.00;64.50
41720;DHT22;27405;53.316;-6.294;2023-05-23T14:33:30;21.30;64.10
41720;DHT22;27405;53.316;-6.294;2023-05-23T14:35:56;21.60;63.90
41720;DHT22;27405;53.316;-6.294;2023-05-23T14:38:22;22.00;63.80
41720;DHT22;27405;53.316;-6.294;2023-05-23T14:40:47;22.40;62.80
41720;DHT22;27405;53.316;-6.294;2023-05-23T14:43:14;22.80;62.30
41720;DHT22;27405;53.316;-6.294;2023-05-23T14:45:40;23.30;61.50
41720;DHT22;27405;53.316;-6.294;2023-05-23T14:48:08;23.80;60.40
41720;DHT22;27405;53.316;-6.294;2023-05-23T14:50:34;24.30;59.80
41720;DHT22;27405;53.316;-6.294;2023-05-23T14:53:00;24.70;58.30
41720;DHT22;27405;53.316;-6.294;2023-05-23T14:55:26;24.80;57.40
41720;DHT22;27405;53.316;-6.294;2023-05-23T14:57:51;25.00;57.20
41720;DHT22;27405;53.316;-6.294;2023-05-23T15:00:17;25.20;56.80
41720;DHT22;27405;53.316;-6.294;2023-05-23T15:02:43;25.50;56.70
41720;DHT22;27405;53.316;-6.294;2023-05-23T15:05:10;25.90;56.20
41720;DHT22;27405;53.316;-6.294;2023-05-23T15:07:36;26.40;55.80
41720;DHT22;27405;53.316;-6.294;2023-05-23T15:10:04;27.00;55.20
41720;DHT22;27405;53.316;-6.294;2023-05-23T15:12:30;27.50;54.20
41720;DHT22;27405;53.316;-6.294;2023-05-23T15:14:56;27.80;53.40
41720;DHT22;27405;53.316;-6.294;2023-05-23T15:17:31;27.90;53.20
41720;DHT22;27405;53.316;-6.294;2023-05-23T15:19:57;28.30;53.00
41720;DHT22;27405;53.316;-6.294;2023-05-23T15:22:23;28.80;52.30
41720;DHT22;27405;53.316;-6.294;2023-05-23T15:24:48;28.80;51.50
41720;DHT22;27405;53.316;-6.294;2023-05-23T15:27:14;28.90;50.90
41720;DHT22;27405;53.316;-6.294;2023-05-23T15:29:40;28.30;50.50
41720;DHT22;27405;53.316;-6.294;2023-05-23T15:32:06;27.80;50.90